• Join FlightAware (Why Join?)
  • Login
  • US Flag 
11:10PM EDT


 

Airport Tracker/Info


-or-


 

Live Flight TrackerFlight Track Log ✈ CSJ405 ✈ 09-May-2013 ✈ KROC - CYHM

Flight Track Log - Related Links

Times and Time Zones

All times are in EDT time to prevent confusion due to time zone crossing. See the CSJ405 flight status page for this flight to view local times or setup timezone preferences in your user account.

Time Position Orientation Groundspeed Altitude Reporting Facility
EDT Latitude Longitude Course Direction KTS MPH feet Rate Location/Type
09:48PM 43.1097 -77.6881 276° West 103 119 1,100  Level Cleveland Center
09:49PM 43.1128 -77.7306 276° West 101 116 2,300 1,020 Climbing Cleveland Center
09:50PM 43.1139 -77.7733 272° West 109 125 3,300 840 Climbing Cleveland Center
09:51PM 43.1189 -77.8128 280° West 112 129 4,100 360 Climbing Cleveland Center
09:52PM 43.1203 -77.8725 272° West 164 189 4,100 -60 Level Cleveland Center
09:54PM 43.1333 -78.0000 278° West 166 191 4,000 -60 Descending Buffalo TRACON
09:55PM 43.1333 -78.0667 270° West 166 191 4,000  Level Buffalo TRACON
09:57PM 43.1333 -78.1333 270° West 165 190 4,000  Level Buffalo TRACON
09:58PM 43.1333 -78.1833 270° West 163 188 4,000  Level Buffalo TRACON
09:59PM 43.1333 -78.2667 270° West 162 186 4,000  Level Buffalo TRACON
10:00PM 43.1333 -78.3167 270° West 162 186 4,000  Level Buffalo TRACON
10:01PM 43.1333 -78.3833 270° West 159 183 4,000  Level Buffalo TRACON
10:03PM 43.1500 -78.5000 281° West 156 180 4,000  Level Buffalo TRACON
10:04PM 43.1500 -78.5667 270° West 158 182 4,000  Level Buffalo TRACON
10:05PM 43.1500 -78.6167 270° West 155 178 4,000  Level Buffalo TRACON
10:06PM 43.1500 -78.6833 270° West 160 184 4,000  Level Buffalo TRACON
10:07PM 43.1500 -78.7500 270° West 161 185 4,100  Climbing Buffalo TRACON
10:07PM 43.1500 -78.7667 270° West 160 184 4,100  Level Toronto Center
10:08PM 43.1500 -78.8333 270° West 160 184 4,100  Level Toronto Center
10:09PM 43.1500 -78.9000 270° West 160 184 4,100 -60 Level Toronto Center
10:10PM 43.1500 -78.9500 270° West 160 184 4,000  Descending Toronto Center
10:11PM 43.1500 -79.0167 270° West 160 184 4,100  Climbing Toronto Center
10:12PM 43.1500 -79.0833 270° West 160 184 4,000  Descending Toronto Center
10:13PM 43.1500 -79.1333 270° West 160 184 4,100  Climbing Toronto Center
10:14PM 43.1500 -79.2000 270° West 160 184 4,100 -60 Level Toronto Center
10:15PM 43.1500 -79.2667 270° West 160 184 4,000  Descending Toronto Center
10:16PM 43.1500 -79.3167 270° West 160 184 4,100  Climbing Toronto Center
10:17PM 43.1500 -79.3833 270° West 160 184 4,100 -60 Level Toronto Center
10:18PM 43.1500 -79.4500 270° West 160 184 4,000 -60 Descending Toronto Center
10:19PM 43.1500 -79.5000 270° West 160 184 4,000 -120 Level Toronto Center
10:20PM 43.1667 -79.5667 289° West 160 184 3,800 -360 Descending Toronto Center
10:21PM 43.1667 -79.6333 270° West 170 196 3,300 -480 Descending Toronto Center
10:22PM 43.1667 -79.7000 270° West 170 196 2,900 -420 Descending Toronto Center
10:23PM 43.1667 -79.7500 270° West 170 196 2,500 -420 Descending Toronto Center
10:24PM 43.1667 -79.8167 270° West 170 196 2,100 -660 Descending Toronto Center
10:25PM 43.1667 -79.8833 270° West 170 196 1,200 -660 Descending Toronto Center
10:26PM 43.1667 -79.9000 270° West 90 104 800 -240 Descending Toronto Center
10:27PM 43.1500 -79.9000 180° South 30 35 800  Level Toronto Center